sensor_id;sensor_type;location;lat;lon;timestamp;P1;durP1;ratioP1;P2;durP2;ratioP2
51312;SDS011;37397;53.226;10.400;2023-02-13T00:00:14;17.92;;;11.20;;
51312;SDS011;37397;53.226;10.400;2023-02-13T00:02:43;20.45;;;13.40;;
51312;SDS011;37397;53.226;10.400;2023-02-13T00:05:09;18.75;;;12.02;;
51312;SDS011;37397;53.226;10.400;2023-02-13T00:07:36;19.75;;;12.65;;
51312;SDS011;37397;53.226;10.400;2023-02-13T00:10:02;20.10;;;13.00;;
51312;SDS011;37397;53.226;10.400;2023-02-13T00:12:29;18.92;;;11.88;;
51312;SDS011;37397;53.226;10.400;2023-02-13T00:14:56;22.63;;;12.38;;
51312;SDS011;37397;53.226;10.400;2023-02-13T00:17:24;20.33;;;13.27;;
51312;SDS011;37397;53.226;10.400;2023-02-13T00:19:51;18.52;;;12.68;;
51312;SDS011;37397;53.226;10.400;2023-02-13T00:22:18;21.80;;;13.13;;
51312;SDS011;37397;53.226;10.400;2023-02-13T00:24:44;20.50;;;12.57;;
51312;SDS011;37397;53.226;10.400;2023-02-13T00:27:11;21.38;;;12.73;;
51312;SDS011;37397;53.226;10.400;2023-02-13T00:29:38;20.77;;;12.90;;
51312;SDS011;37397;53.226;10.400;2023-02-13T00:32:04;21.85;;;13.35;;
51312;SDS011;37397;53.226;10.400;2023-02-13T00:34:31;19.48;;;12.75;;
51312;SDS011;37397;53.226;10.400;2023-02-13T00:37:01;19.48;;;13.25;;
51312;SDS011;37397;53.226;10.400;2023-02-13T00:39:28;22.45;;;14.13;;
51312;SDS011;37397;53.226;10.400;2023-02-13T00:41:54;20.42;;;13.02;;
51312;SDS011;37397;53.226;10.400;2023-02-13T00:44:21;22.17;;;13.30;;
51312;SDS011;37397;53.226;10.400;2023-02-13T00:46:47;22.20;;;14.32;;
51312;SDS011;37397;53.226;10.400;2023-02-13T00:49:15;22.98;;;13.75;;
51312;SDS011;37397;53.226;10.400;2023-02-13T00:51:42;23.67;;;14.05;;
51312;SDS011;37397;53.226;10.400;2023-02-13T00:54:08;21.17;;;13.95;;
51312;SDS011;37397;53.226;10.400;2023-02-13T00:56:35;22.17;;;13.82;;
51312;SDS011;37397;53.226;10.400;2023-02-13T00:59:01;22.63;;;14.23;;
51312;SDS011;37397;53.226;10.400;2023-02-13T01:01:28;23.83;;;14.57;;
51312;SDS011;37397;53.226;10.400;2023-02-13T01:03:55;25.50;;;14.88;;
51312;SDS011;37397;53.226;10.400;2023-02-13T01:06:21;23.48;;;14.55;;
51312;SDS011;37397;53.226;10.400;2023-02-13T01:08:48;22.85;;;14.45;;
51312;SDS011;37397;53.226;10.400;2023-02-13T01:11:14;24.00;;;14.20;;
51312;SDS011;37397;53.226;10.400;2023-02-13T01:13:42;24.40;;;14.75;;
51312;SDS011;37397;53.226;10.400;2023-02-13T01:16:09;24.98;;;15.38;;
51312;SDS011;37397;53.226;10.400;2023-02-13T01:18:36;23.60;;;13.82;;
51312;SDS011;37397;53.226;10.400;2023-02-13T01:21:04;24.77;;;15.05;;
51312;SDS011;37397;53.226;10.400;2023-02-13T01:23:32;23.58;;;14.35;;
51312;SDS011;37397;53.226;10.400;2023-02-13T01:26:04;24.52;;;14.60;;
51312;SDS011;37397;53.226;10.400;2023-02-13T01:28:33;23.08;;;13.73;;
51312;SDS011;37397;53.226;10.400;2023-02-13T01:31:00;24.42;;;14.27;;
51312;SDS011;37397;53.226;10.400;2023-02-13T01:33:28;23.85;;;13.88;;
51312;SDS011;37397;53.226;10.400;2023-02-13T01:35:55;22.75;;;13.88;;
51312;SDS011;37397;53.226;10.400;2023-02-13T01:38:21;24.73;;;14.25;;
51312;SDS011;37397;53.226;10.400;2023-02-13T01:40:49;23.27;;;14.15;;
51312;SDS011;37397;53.226;10.400;2023-02-13T01:43:18;22.35;;;13.73;;
51312;SDS011;37397;53.226;10.400;2023-02-13T01:45:49;23.70;;;13.65;;
51312;SDS011;37397;53.226;10.400;2023-02-13T01:48:24;24.38;;;13.43;;
51312;SDS011;37397;53.226;10.400;2023-02-13T01:53:36;22.38;;;13.90;;
51312;SDS011;37397;53.226;10.400;2023-02-13T01:56:17;26.00;;;14.27;;
51312;SDS011;37397;53.226;10.400;2023-02-13T01:58:52;24.27;;;14.10;;
51312;SDS011;37397;53.226;10.400;2023-02-13T02:01:22;23.40;;;13.45;;
51312;SDS011;37397;53.226;10.400;2023-02-13T02:03:56;21.88;;;13.13;;
51312;SDS011;37397;53.226;10.400;2023-02-13T02:06:33;21.02;;;13.30;;
51312;SDS011;37397;53.226;10.400;2023-02-13T02:09:11;22.23;;;13.15;;
51312;SDS011;37397;53.226;10.400;2023-02-13T02:11:43;21.15;;;12.63;;
51312;SDS011;37397;53.226;10.400;2023-02-13T02:14:13;21.63;;;12.82;;
51312;SDS011;37397;53.226;10.400;2023-02-13T02:16:41;20.95;;;11.80;;
51312;SDS011;37397;53.226;10.400;2023-02-13T02:19:11;22.65;;;13.00;;
51312;SDS011;37397;53.226;10.400;2023-02-13T02:30:41;21.92;;;12.18;;
51312;SDS011;37397;53.226;10.400;2023-02-13T02:33:20;20.50;;;12.60;;
51312;SDS011;37397;53.226;10.400;2023-02-13T02:36:12;21.27;;;12.52;;
51312;SDS011;37397;53.226;10.400;2023-02-13T02:45:02;21.42;;;12.40;;
51312;SDS011;37397;53.226;10.400;2023-02-13T02:47:41;19.67;;;12.15;;
51312;SDS011;37397;53.226;10.400;2023-02-13T02:50:36;19.67;;;11.95;;
51312;SDS011;37397;53.226;10.400;2023-02-13T02:55:59;20.40;;;12.38;;
51312;SDS011;37397;53.226;10.400;2023-02-13T03:01:31;22.83;;;12.38;;
51312;SDS011;37397;53.226;10.400;2023-02-13T03:04:28;23.00;;;12.73;;
51312;SDS011;37397;53.226;10.400;2023-02-13T03:07:19;20.52;;;11.00;;
51312;SDS011;37397;53.226;10.400;2023-02-13T03:09:47;20.58;;;11.70;;
51312;SDS011;37397;53.226;10.400;2023-02-13T03:12:46;19.60;;;11.85;;
51312;SDS011;37397;53.226;10.400;2023-02-13T03:15:38;18.58;;;10.90;;
51312;SDS011;37397;53.226;10.400;2023-02-13T03:18:28;20.67;;;11.93;;
51312;SDS011;37397;53.226;10.400;2023-02-13T03:21:20;20.17;;;11.70;;
51312;SDS011;37397;53.226;10.400;2023-02-13T03:26:59;18.83;;;10.57;;
51312;SDS011;37397;53.226;10.400;2023-02-13T03:29:37;20.80;;;10.85;;
51312;SDS011;37397;53.226;10.400;2023-02-13T03:38:36;19.73;;;10.93;;
51312;SDS011;37397;53.226;10.400;2023-02-13T03:41:29;18.23;;;10.63;;
51312;SDS011;37397;53.226;10.400;2023-02-13T03:44:19;20.08;;;11.27;;
51312;SDS011;37397;53.226;10.400;2023-02-13T03:46:53;17.77;;;10.32;;
51312;SDS011;37397;53.226;10.400;2023-02-13T03:49:25;18.15;;;10.45;;
51312;SDS011;37397;53.226;10.400;2023-02-13T03:52:17;17.98;;;10.63;;
51312;SDS011;37397;53.226;10.400;2023-02-13T03:55:06;23.55;;;11.57;;
51312;SDS011;37397;53.226;10.400;2023-02-13T03:57:57;17.77;;;9.98;;
51312;SDS011;37397;53.226;10.400;2023-02-13T04:00:48;19.13;;;10.15;;
51312;SDS011;37397;53.226;10.400;2023-02-13T04:03:30;19.95;;;10.18;;
51312;SDS011;37397;53.226;10.400;2023-02-13T04:06:12;18.10;;;10.38;;
51312;SDS011;37397;53.226;10.400;2023-02-13T04:08:42;17.88;;;10.20;;
51312;SDS011;37397;53.226;10.400;2023-02-13T04:11:09;17.95;;;9.95;;
51312;SDS011;37397;53.226;10.400;2023-02-13T04:13:51;17.38;;;9.50;;
51312;SDS011;37397;53.226;10.400;2023-02-13T04:16:29;16.88;;;9.90;;
51312;SDS011;37397;53.226;10.400;2023-02-13T04:19:00;18.00;;;10.25;;
51312;SDS011;37397;53.226;10.400;2023-02-13T04:21:31;17.15;;;9.48;;
51312;SDS011;37397;53.226;10.400;2023-02-13T04:23:58;15.98;;;9.43;;
51312;SDS011;37397;53.226;10.400;2023-02-13T04:26:25;14.07;;;8.68;;
51312;SDS011;37397;53.226;10.400;2023-02-13T04:28:57;17.10;;;9.43;;
51312;SDS011;37397;53.226;10.400;2023-02-13T04:31:24;17.00;;;9.82;;
51312;SDS011;37397;53.226;10.400;2023-02-13T04:33:51;15.07;;;8.85;;
51312;SDS011;37397;53.226;10.400;2023-02-13T04:36:17;16.60;;;9.68;;
51312;SDS011;37397;53.226;10.400;2023-02-13T04:38:44;18.50;;;10.23;;
51312;SDS011;37397;53.226;10.400;2023-02-13T04:41:11;16.67;;;9.52;;
51312;SDS011;37397;53.226;10.400;2023-02-13T04:43:38;18.75;;;10.48;;
51312;SDS011;37397;53.226;10.400;2023-02-13T04:46:04;17.58;;;9.60;;
51312;SDS011;37397;53.226;10.400;2023-02-13T04:48:31;16.67;;;9.68;;
51312;SDS011;37397;53.226;10.400;2023-02-13T04:50:58;19.75;;;10.93;;
51312;SDS011;37397;53.226;10.400;2023-02-13T04:53:25;16.08;;;10.60;;
51312;SDS011;37397;53.226;10.400;2023-02-13T04:55:51;18.25;;;10.20;;
51312;SDS011;37397;53.226;10.400;2023-02-13T04:58:18;17.83;;;9.85;;
51312;SDS011;37397;53.226;10.400;2023-02-13T05:00:44;18.13;;;11.02;;
51312;SDS011;37397;53.226;10.400;2023-02-13T05:03:11;17.75;;;10.55;;
51312;SDS011;37397;53.226;10.400;2023-02-13T05:05:39;16.92;;;10.18;;
51312;SDS011;37397;53.226;10.400;2023-02-13T05:08:06;16.85;;;10.25;;
51312;SDS011;37397;53.226;10.400;2023-02-13T05:10:33;17.05;;;9.95;;
51312;SDS011;37397;53.226;10.400;2023-02-13T05:13:00;16.38;;;9.88;;
51312;SDS011;37397;53.226;10.400;2023-02-13T05:15:27;15.65;;;9.88;;
51312;SDS011;37397;53.226;10.400;2023-02-13T05:17:54;15.82;;;9.98;;
51312;SDS011;37397;53.226;10.400;2023-02-13T05:20:20;18.15;;;10.60;;
51312;SDS011;37397;53.226;10.400;2023-02-13T05:22:47;18.92;;;9.82;;
51312;SDS011;37397;53.226;10.400;2023-02-13T05:25:35;15.65;;;9.57;;
51312;SDS011;37397;53.226;10.400;2023-02-13T05:28:03;18.48;;;9.98;;
51312;SDS011;37397;53.226;10.400;2023-02-13T05:30:30;17.88;;;10.32;;
51312;SDS011;37397;53.226;10.400;2023-02-13T05:32:56;16.50;;;9.90;;
51312;SDS011;37397;53.226;10.400;2023-02-13T05:35:23;17.08;;;9.85;;
51312;SDS011;37397;53.226;10.400;2023-02-13T05:37:50;16.35;;;9.85;;
51312;SDS011;37397;53.226;10.400;2023-02-13T05:40:17;14.00;;;9.00;;
51312;SDS011;37397;53.226;10.400;2023-02-13T05:42:44;15.27;;;9.52;;
51312;SDS011;37397;53.226;10.400;2023-02-13T05:45:10;15.45;;;9.18;;
51312;SDS011;37397;53.226;10.400;2023-02-13T05:47:36;15.65;;;8.98;;
51312;SDS011;37397;53.226;10.400;2023-02-13T05:50:03;16.15;;;9.57;;
51312;SDS011;37397;53.226;10.400;2023-02-13T05:52:30;22.10;;;10.57;;
51312;SDS011;37397;53.226;10.400;2023-02-13T05:54:57;15.85;;;9.75;;
51312;SDS011;37397;53.226;10.400;2023-02-13T05:57:23;15.63;;;9.23;;
51312;SDS011;37397;53.226;10.400;2023-02-13T05:59:50;15.60;;;8.98;;
51312;SDS011;37397;53.226;10.400;2023-02-13T06:02:16;15.48;;;9.27;;
51312;SDS011;37397;53.226;10.400;2023-02-13T06:04:43;14.95;;;8.60;;
51312;SDS011;37397;53.226;10.400;2023-02-13T06:07:09;15.65;;;9.30;;
51312;SDS011;37397;53.226;10.400;2023-02-13T06:09:36;17.42;;;9.68;;
51312;SDS011;37397;53.226;10.400;2023-02-13T06:12:02;15.32;;;8.80;;
51312;SDS011;37397;53.226;10.400;2023-02-13T06:14:29;15.15;;;9.02;;
51312;SDS011;37397;53.226;10.400;2023-02-13T06:16:55;14.18;;;8.80;;
51312;SDS011;37397;53.226;10.400;2023-02-13T06:19:22;14.52;;;8.75;;
51312;SDS011;37397;53.226;10.400;2023-02-13T06:21:48;16.05;;;9.35;;
51312;SDS011;37397;53.226;10.400;2023-02-13T06:24:15;14.50;;;9.25;;
51312;SDS011;37397;53.226;10.400;2023-02-13T06:26:41;15.85;;;9.35;;
51312;SDS011;37397;53.226;10.400;2023-02-13T06:29:08;14.00;;;8.98;;
51312;SDS011;37397;53.226;10.400;2023-02-13T06:31:34;15.18;;;9.13;;
51312;SDS011;37397;53.226;10.400;2023-02-13T06:34:01;16.38;;;9.68;;
51312;SDS011;37397;53.226;10.400;2023-02-13T06:36:28;14.82;;;9.07;;
51312;SDS011;37397;53.226;10.400;2023-02-13T06:38:54;15.95;;;9.18;;
51312;SDS011;37397;53.226;10.400;2023-02-13T06:41:21;16.27;;;9.45;;
51312;SDS011;37397;53.226;10.400;2023-02-13T06:43:47;16.05;;;9.50;;
51312;SDS011;37397;53.226;10.400;2023-02-13T06:46:14;15.38;;;8.73;;
51312;SDS011;37397;53.226;10.400;2023-02-13T06:48:40;16.75;;;9.50;;
51312;SDS011;37397;53.226;10.400;2023-02-13T06:51:07;15.25;;;9.32;;
51312;SDS011;37397;53.226;10.400;2023-02-13T06:53:33;17.75;;;9.88;;
51312;SDS011;37397;53.226;10.400;2023-02-13T06:56:02;16.08;;;9.02;;
51312;SDS011;37397;53.226;10.400;2023-02-13T06:58:31;16.88;;;8.88;;
51312;SDS011;37397;53.226;10.400;2023-02-13T07:00:59;15.30;;;8.88;;
51312;SDS011;37397;53.226;10.400;2023-02-13T07:03:26;16.33;;;9.48;;
51312;SDS011;37397;53.226;10.400;2023-02-13T07:05:52;15.30;;;9.25;;
51312;SDS011;37397;53.226;10.400;2023-02-13T07:08:19;15.45;;;9.30;;
51312;SDS011;37397;53.226;10.400;2023-02-13T07:10:45;16.48;;;10.35;;
51312;SDS011;37397;53.226;10.400;2023-02-13T07:13:12;15.32;;;9.30;;
51312;SDS011;37397;53.226;10.400;2023-02-13T07:15:39;19.10;;;10.10;;
51312;SDS011;37397;53.226;10.400;2023-02-13T07:18:05;15.73;;;9.75;;
51312;SDS011;37397;53.226;10.400;2023-02-13T07:20:32;17.45;;;10.38;;
51312;SDS011;37397;53.226;10.400;2023-02-13T07:22:59;16.20;;;9.88;;
51312;SDS011;37397;53.226;10.400;2023-02-13T07:25:27;16.33;;;10.30;;
51312;SDS011;37397;53.226;10.400;2023-02-13T07:27:54;16.73;;;9.75;;
51312;SDS011;37397;53.226;10.400;2023-02-13T07:30:25;15.25;;;9.73;;
51312;SDS011;37397;53.226;10.400;2023-02-13T07:32:52;19.77;;;11.10;;
51312;SDS011;37397;53.226;10.400;2023-02-13T07:35:18;17.63;;;10.80;;
51312;SDS011;37397;53.226;10.400;2023-02-13T07:37:44;17.35;;;10.88;;
51312;SDS011;37397;53.226;10.400;2023-02-13T07:40:11;17.67;;;10.65;;
51312;SDS011;37397;53.226;10.400;2023-02-13T07:42:38;17.50;;;10.27;;
51312;SDS011;37397;53.226;10.400;2023-02-13T07:45:04;18.42;;;11.05;;
51312;SDS011;37397;53.226;10.400;2023-02-13T07:47:33;19.20;;;10.52;;
51312;SDS011;37397;53.226;10.400;2023-02-13T07:50:00;17.35;;;10.02;;
51312;SDS011;37397;53.226;10.400;2023-02-13T07:52:27;17.40;;;11.23;;
51312;SDS011;37397;53.226;10.400;2023-02-13T07:54:54;17.73;;;11.00;;
51312;SDS011;37397;53.226;10.400;2023-02-13T07:57:20;18.20;;;10.77;;
51312;SDS011;37397;53.226;10.400;2023-02-13T07:59:47;18.45;;;10.40;;
51312;SDS011;37397;53.226;10.400;2023-02-13T08:02:14;18.08;;;10.88;;
51312;SDS011;37397;53.226;10.400;2023-02-13T08:04:41;21.35;;;10.45;;
51312;SDS011;37397;53.226;10.400;2023-02-13T08:07:12;19.67;;;11.65;;
51312;SDS011;37397;53.226;10.400;2023-02-13T08:09:40;18.73;;;11.00;;
51312;SDS011;37397;53.226;10.400;2023-02-13T08:12:25;18.92;;;11.18;;
51312;SDS011;37397;53.226;10.400;2023-02-13T08:14:52;17.58;;;10.77;;
51312;SDS011;37397;53.226;10.400;2023-02-13T08:17:18;17.55;;;10.85;;
51312;SDS011;37397;53.226;10.400;2023-02-13T08:19:45;16.42;;;10.52;;
51312;SDS011;37397;53.226;10.400;2023-02-13T08:22:11;17.73;;;10.13;;
51312;SDS011;37397;53.226;10.400;2023-02-13T08:24:38;17.15;;;9.77;;
51312;SDS011;37397;53.226;10.400;2023-02-13T08:27:04;18.15;;;11.07;;
51312;SDS011;37397;53.226;10.400;2023-02-13T08:29:31;19.33;;;10.40;;
51312;SDS011;37397;53.226;10.400;2023-02-13T08:31:59;18.27;;;10.85;;
51312;SDS011;37397;53.226;10.400;2023-02-13T08:34:26;23.17;;;10.98;;
51312;SDS011;37397;53.226;10.400;2023-02-13T08:36:52;19.23;;;11.02;;
51312;SDS011;37397;53.226;10.400;2023-02-13T08:39:19;19.63;;;10.63;;
51312;SDS011;37397;53.226;10.400;2023-02-13T08:41:45;20.05;;;11.90;;
51312;SDS011;37397;53.226;10.400;2023-02-13T08:44:11;20.90;;;12.13;;
51312;SDS011;37397;53.226;10.400;2023-02-13T08:46:38;19.55;;;12.35;;
51312;SDS011;37397;53.226;10.400;2023-02-13T08:49:05;20.88;;;11.18;;
51312;SDS011;37397;53.226;10.400;2023-02-13T08:51:32;19.63;;;11.40;;
51312;SDS011;37397;53.226;10.400;2023-02-13T08:53:58;17.95;;;11.38;;
51312;SDS011;37397;53.226;10.400;2023-02-13T08:56:24;20.27;;;11.18;;
51312;SDS011;37397;53.226;10.400;2023-02-13T08:58:51;19.63;;;11.88;;
51312;SDS011;37397;53.226;10.400;2023-02-13T09:01:17;20.55;;;11.40;;
51312;SDS011;37397;53.226;10.400;2023-02-13T09:03:44;18.63;;;10.85;;
51312;SDS011;37397;53.226;10.400;2023-02-13T09:06:10;20.00;;;11.70;;
51312;SDS011;37397;53.226;10.400;2023-02-13T09:08:37;18.08;;;11.15;;
51312;SDS011;37397;53.226;10.400;2023-02-13T09:11:04;18.38;;;11.10;;
51312;SDS011;37397;53.226;10.400;2023-02-13T09:13:32;19.60;;;11.38;;
51312;SDS011;37397;53.226;10.400;2023-02-13T09:16:00;19.92;;;11.45;;
51312;SDS011;37397;53.226;10.400;2023-02-13T09:18:30;18.25;;;11.20;;
51312;SDS011;37397;53.226;10.400;2023-02-13T09:20:57;20.67;;;12.60;;
51312;SDS011;37397;53.226;10.400;2023-02-13T09:23:32;18.70;;;11.13;;
51312;SDS011;37397;53.226;10.400;2023-02-13T09:26:00;21.35;;;12.52;;
51312;SDS011;37397;53.226;10.400;2023-02-13T09:28:28;19.33;;;12.00;;
51312;SDS011;37397;53.226;10.400;2023-02-13T09:30:56;20.55;;;11.93;;
51312;SDS011;37397;53.226;10.400;2023-02-13T09:33:24;20.45;;;11.80;;
51312;SDS011;37397;53.226;10.400;2023-02-13T09:35:51;21.58;;;13.15;;
51312;SDS011;37397;53.226;10.400;2023-02-13T09:38:17;19.67;;;11.35;;
51312;SDS011;37397;53.226;10.400;2023-02-13T09:40:45;20.38;;;12.77;;
51312;SDS011;37397;53.226;10.400;2023-02-13T09:43:16;17.85;;;11.40;;
51312;SDS011;37397;53.226;10.400;2023-02-13T09:45:53;18.48;;;11.43;;
51312;SDS011;37397;53.226;10.400;2023-02-13T09:48:26;19.35;;;11.82;;
51312;SDS011;37397;53.226;10.400;2023-02-13T09:50:56;18.45;;;11.35;;
51312;SDS011;37397;53.226;10.400;2023-02-13T09:53:25;18.35;;;11.30;;
51312;SDS011;37397;53.226;10.400;2023-02-13T09:55:57;22.00;;;12.35;;
51312;SDS011;37397;53.226;10.400;2023-02-13T10:01:23;21.90;;;12.18;;
51312;SDS011;37397;53.226;10.400;2023-02-13T10:04:10;20.40;;;11.63;;
51312;SDS011;37397;53.226;10.400;2023-02-13T10:06:48;20.92;;;11.18;;
51312;SDS011;37397;53.226;10.400;2023-02-13T10:14:46;18.25;;;10.57;;
51312;SDS011;37397;53.226;10.400;2023-02-13T10:17:25;21.27;;;12.30;;
51312;SDS011;37397;53.226;10.400;2023-02-13T10:20:00;22.65;;;13.07;;
51312;SDS011;37397;53.226;10.400;2023-02-13T10:22:33;18.77;;;11.70;;
51312;SDS011;37397;53.226;10.400;2023-02-13T10:27:43;22.08;;;11.52;;
51312;SDS011;37397;53.226;10.400;2023-02-13T10:30:21;20.98;;;11.43;;
51312;SDS011;37397;53.226;10.400;2023-02-13T10:33:10;21.67;;;13.07;;
51312;SDS011;37397;53.226;10.400;2023-02-13T10:38:24;22.45;;;12.52;;
51312;SDS011;37397;53.226;10.400;2023-02-13T10:41:02;21.25;;;12.60;;
51312;SDS011;37397;53.226;10.400;2023-02-13T10:44:00;22.27;;;12.73;;
51312;SDS011;37397;53.226;10.400;2023-02-13T10:49:45;21.15;;;12.18;;
51312;SDS011;37397;53.226;10.400;2023-02-13T10:52:35;20.27;;;11.93;;
51312;SDS011;37397;53.226;10.400;2023-02-13T10:55:17;20.83;;;12.50;;
51312;SDS011;37397;53.226;10.400;2023-02-13T10:58:01;24.63;;;13.35;;
51312;SDS011;37397;53.226;10.400;2023-02-13T11:00:37;20.88;;;12.38;;
51312;SDS011;37397;53.226;10.400;2023-02-13T11:03:16;21.13;;;12.18;;
51312;SDS011;37397;53.226;10.400;2023-02-13T11:05:45;24.67;;;13.07;;
51312;SDS011;37397;53.226;10.400;2023-02-13T11:08:22;22.25;;;12.90;;
51312;SDS011;37397;53.226;10.400;2023-02-13T11:10:50;19.20;;;11.95;;
51312;SDS011;37397;53.226;10.400;2023-02-13T11:13:18;21.90;;;13.57;;
51312;SDS011;37397;53.226;10.400;2023-02-13T11:18:36;21.05;;;12.10;;
51312;SDS011;37397;53.226;10.400;2023-02-13T11:21:10;17.67;;;11.27;;
51312;SDS011;37397;53.226;10.400;2023-02-13T11:23:43;20.95;;;12.70;;
51312;SDS011;37397;53.226;10.400;2023-02-13T11:26:15;21.23;;;12.55;;
51312;SDS011;37397;53.226;10.400;2023-02-13T11:28:55;21.02;;;12.38;;
51312;SDS011;37397;53.226;10.400;2023-02-13T11:31:30;19.52;;;11.38;;
51312;SDS011;37397;53.226;10.400;2023-02-13T11:34:16;20.73;;;11.57;;
51312;SDS011;37397;53.226;10.400;2023-02-13T11:37:06;23.58;;;12.13;;
51312;SDS011;37397;53.226;10.400;2023-02-13T11:39:39;23.40;;;11.75;;
51312;SDS011;37397;53.226;10.400;2023-02-13T11:42:49;20.60;;;12.13;;
51312;SDS011;37397;53.226;10.400;2023-02-13T11:45:04;20.73;;;12.20;;
51312;SDS011;37397;53.226;10.400;2023-02-13T11:47:47;21.33;;;11.95;;
51312;SDS011;37397;53.226;10.400;2023-02-13T11:50:27;20.98;;;12.55;;
51312;SDS011;37397;53.226;10.400;2023-02-13T11:53:00;20.67;;;12.20;;
51312;SDS011;37397;53.226;10.400;2023-02-13T11:55:30;24.60;;;13.60;;
51312;SDS011;37397;53.226;10.400;2023-02-13T12:00:41;21.08;;;12.73;;
51312;SDS011;37397;53.226;10.400;2023-02-13T12:06:04;23.40;;;13.15;;
51312;SDS011;37397;53.226;10.400;2023-02-13T12:08:35;21.77;;;12.60;;
51312;SDS011;37397;53.226;10.400;2023-02-13T12:11:12;22.58;;;12.43;;
51312;SDS011;37397;53.226;10.400;2023-02-13T12:13:46;22.17;;;12.77;;
51312;SDS011;37397;53.226;10.400;2023-02-13T12:16:24;20.75;;;12.73;;
51312;SDS011;37397;53.226;10.400;2023-02-13T12:18:57;19.02;;;11.68;;
51312;SDS011;37397;53.226;10.400;2023-02-13T12:27:17;19.02;;;11.15;;
51312;SDS011;37397;53.226;10.400;2023-02-13T12:32:56;19.02;;;11.80;;
51312;SDS011;37397;53.226;10.400;2023-02-13T12:35:50;21.67;;;12.48;;
51312;SDS011;37397;53.226;10.400;2023-02-13T12:38:44;18.70;;;11.23;;
51312;SDS011;37397;53.226;10.400;2023-02-13T12:43:59;22.65;;;12.57;;
51312;SDS011;37397;53.226;10.400;2023-02-13T12:52:19;21.27;;;12.65;;
51312;SDS011;37397;53.226;10.400;2023-02-13T13:09:54;23.92;;;13.90;;
51312;SDS011;37397;53.226;10.400;2023-02-13T13:12:18;21.35;;;12.32;;
51312;SDS011;37397;53.226;10.400;2023-02-13T13:14:53;19.63;;;12.48;;
51312;SDS011;37397;53.226;10.400;2023-02-13T13:17:34;22.05;;;12.90;;
51312;SDS011;37397;53.226;10.400;2023-02-13T13:26:06;21.73;;;13.35;;
51312;SDS011;37397;53.226;10.400;2023-02-13T13:28:37;24.80;;;14.98;;
51312;SDS011;37397;53.226;10.400;2023-02-13T13:31:08;21.70;;;13.43;;
51312;SDS011;37397;53.226;10.400;2023-02-13T13:33:38;22.05;;;13.88;;
51312;SDS011;37397;53.226;10.400;2023-02-13T13:38:50;23.02;;;14.07;;
51312;SDS011;37397;53.226;10.400;2023-02-13T13:43:58;22.05;;;13.60;;
51312;SDS011;37397;53.226;10.400;2023-02-13T13:49:26;22.77;;;13.93;;
51312;SDS011;37397;53.226;10.400;2023-02-13T13:54:48;22.98;;;14.30;;
51312;SDS011;37397;53.226;10.400;2023-02-13T13:57:27;23.27;;;14.60;;
51312;SDS011;37397;53.226;10.400;2023-02-13T14:05:16;24.40;;;15.00;;
51312;SDS011;37397;53.226;10.400;2023-02-13T14:18:04;23.48;;;13.55;;
51312;SDS011;37397;53.226;10.400;2023-02-13T14:23:27;24.52;;;15.10;;
51312;SDS011;37397;53.226;10.400;2023-02-13T14:26:17;23.67;;;13.57;;
51312;SDS011;37397;53.226;10.400;2023-02-13T14:31:21;24.85;;;14.52;;
51312;SDS011;37397;53.226;10.400;2023-02-13T14:34:03;25.67;;;14.52;;
51312;SDS011;37397;53.226;10.400;2023-02-13T14:36:37;25.85;;;14.70;;
51312;SDS011;37397;53.226;10.400;2023-02-13T14:39:07;26.55;;;15.13;;
51312;SDS011;37397;53.226;10.400;2023-02-13T14:47:18;22.95;;;13.73;;
51312;SDS011;37397;53.226;10.400;2023-02-13T14:49:48;28.25;;;15.85;;
51312;SDS011;37397;53.226;10.400;2023-02-13T14:52:28;28.73;;;15.15;;
51312;SDS011;37397;53.226;10.400;2023-02-13T14:55:27;25.15;;;14.88;;
51312;SDS011;37397;53.226;10.400;2023-02-13T14:58:05;22.25;;;14.07;;
51312;SDS011;37397;53.226;10.400;2023-02-13T15:00:45;26.80;;;14.73;;
51312;SDS011;37397;53.226;10.400;2023-02-13T15:05:53;25.35;;;15.20;;
51312;SDS011;37397;53.226;10.400;2023-02-13T15:08:25;23.77;;;14.85;;
51312;SDS011;37397;53.226;10.400;2023-02-13T15:11:04;26.10;;;15.82;;
51312;SDS011;37397;53.226;10.400;2023-02-13T15:13:51;25.75;;;15.88;;
51312;SDS011;37397;53.226;10.400;2023-02-13T15:16:17;26.05;;;15.70;;
51312;SDS011;37397;53.226;10.400;2023-02-13T15:18:46;25.58;;;15.27;;
51312;SDS011;37397;53.226;10.400;2023-02-13T15:21:16;26.15;;;15.60;;
51312;SDS011;37397;53.226;10.400;2023-02-13T15:23:49;25.60;;;15.50;;
51312;SDS011;37397;53.226;10.400;2023-02-13T15:26:21;29.42;;;17.27;;
51312;SDS011;37397;53.226;10.400;2023-02-13T15:28:59;26.33;;;16.73;;
51312;SDS011;37397;53.226;10.400;2023-02-13T15:34:46;25.88;;;15.50;;
51312;SDS011;37397;53.226;10.400;2023-02-13T15:37:20;30.77;;;17.15;;
51312;SDS011;37397;53.226;10.400;2023-02-13T15:39:52;29.83;;;17.80;;
51312;SDS011;37397;53.226;10.400;2023-02-13T15:42:18;30.20;;;17.30;;
51312;SDS011;37397;53.226;10.400;2023-02-13T15:44:46;35.70;;;18.52;;
51312;SDS011;37397;53.226;10.400;2023-02-13T15:47:16;31.55;;;17.58;;
51312;SDS011;37397;53.226;10.400;2023-02-13T15:49:47;34.95;;;19.40;;
51312;SDS011;37397;53.226;10.400;2023-02-13T15:52:21;31.52;;;18.42;;
51312;SDS011;37397;53.226;10.400;2023-02-13T15:54:53;31.40;;;18.10;;
51312;SDS011;37397;53.226;10.400;2023-02-13T15:57:21;32.97;;;19.25;;
51312;SDS011;37397;53.226;10.400;2023-02-13T15:59:49;36.05;;;19.40;;
51312;SDS011;37397;53.226;10.400;2023-02-13T16:02:21;32.20;;;18.05;;
51312;SDS011;37397;53.226;10.400;2023-02-13T16:04:53;31.33;;;18.23;;
51312;SDS011;37397;53.226;10.400;2023-02-13T16:07:20;32.20;;;19.02;;
51312;SDS011;37397;53.226;10.400;2023-02-13T16:09:47;37.80;;;19.38;;
51312;SDS011;37397;53.226;10.400;2023-02-13T16:12:23;34.22;;;19.42;;
51312;SDS011;37397;53.226;10.400;2023-02-13T16:22:36;31.73;;;18.83;;
51312;SDS011;37397;53.226;10.400;2023-02-13T16:25:32;31.02;;;18.65;;
51312;SDS011;37397;53.226;10.400;2023-02-13T16:28:01;30.15;;;18.75;;
51312;SDS011;37397;53.226;10.400;2023-02-13T16:30:32;33.47;;;18.85;;
51312;SDS011;37397;53.226;10.400;2023-02-13T16:38:26;31.08;;;18.55;;
51312;SDS011;37397;53.226;10.400;2023-02-13T16:40:55;30.90;;;17.35;;
51312;SDS011;37397;53.226;10.400;2023-02-13T16:43:51;31.42;;;18.50;;
51312;SDS011;37397;53.226;10.400;2023-02-13T16:46:21;30.70;;;18.45;;
51312;SDS011;37397;53.226;10.400;2023-02-13T16:48:58;28.98;;;17.52;;
51312;SDS011;37397;53.226;10.400;2023-02-13T16:51:32;30.63;;;18.25;;
51312;SDS011;37397;53.226;10.400;2023-02-13T16:54:01;28.67;;;18.25;;
51312;SDS011;37397;53.226;10.400;2023-02-13T16:56:48;27.30;;;17.27;;
51312;SDS011;37397;53.226;10.400;2023-02-13T16:59:20;34.05;;;18.75;;
51312;SDS011;37397;53.226;10.400;2023-02-13T17:01:49;31.40;;;19.77;;
51312;SDS011;37397;53.226;10.400;2023-02-13T17:04:52;33.92;;;19.48;;
51312;SDS011;37397;53.226;10.400;2023-02-13T17:07:30;36.38;;;20.02;;
51312;SDS011;37397;53.226;10.400;2023-02-13T17:12:33;31.27;;;18.88;;